sensor_id;sensor_type;location;lat;lon;timestamp;pressure;altitude;pressure_sealevel;temperature;humidity
57801;BME280;43627;42.728;23.256;2023-04-01T00:01:26;94128.31;;;9.54;90.14
57801;BME280;43627;42.728;23.256;2023-04-01T00:03:53;94131.78;;;9.55;92.46
57801;BME280;43627;42.728;23.256;2023-04-01T00:06:20;94132.75;;;9.52;92.11
57801;BME280;43627;42.728;23.256;2023-04-01T00:08:47;94120.13;;;9.34;91.90
57801;BME280;43627;42.728;23.256;2023-04-01T00:11:15;94132.66;;;9.46;92.72
57801;BME280;43627;42.728;23.256;2023-04-01T00:13:43;94134.34;;;9.43;90.85
57801;BME280;43627;42.728;23.256;2023-04-01T00:16:09;94122.81;;;9.49;90.37
57801;BME280;43627;42.728;23.256;2023-04-01T00:18:47;94123.56;;;9.49;90.35
57801;BME280;43627;42.728;23.256;2023-04-01T00:21:15;94122.19;;;9.59;90.35
57801;BME280;43627;42.728;23.256;2023-04-01T00:23:42;94118.16;;;9.55;90.13
57801;BME280;43627;42.728;23.256;2023-04-01T00:26:10;94114.31;;;9.61;95.32
57801;BME280;43627;42.728;23.256;2023-04-01T00:28:38;94117.28;;;9.63;91.36
57801;BME280;43627;42.728;23.256;2023-04-01T00:31:06;94117.25;;;9.58;90.98
57801;BME280;43627;42.728;23.256;2023-04-01T00:33:33;94116.28;;;9.61;93.33
57801;BME280;43627;42.728;23.256;2023-04-01T00:36:09;94108.63;;;9.44;93.92
57801;BME280;43627;42.728;23.256;2023-04-01T00:38:37;94097.50;;;9.42;96.00
57801;BME280;43627;42.728;23.256;2023-04-01T00:41:05;94099.47;;;9.42;98.01
57801;BME280;43627;42.728;23.256;2023-04-01T00:43:32;94093.94;;;9.36;97.57
57801;BME280;43627;42.728;23.256;2023-04-01T00:45:59;94073.63;;;9.32;99.01
57801;BME280;43627;42.728;23.256;2023-04-01T00:48:32;93976.97;;;8.61;100.00
57801;BME280;43627;42.728;23.256;2023-04-01T00:51:32;94054.25;;;9.09;100.00
57801;BME280;43627;42.728;23.256;2023-04-01T00:54:01;94071.06;;;9.28;100.00
57801;BME280;43627;42.728;23.256;2023-04-01T00:56:48;94058.72;;;9.48;97.19
57801;BME280;43627;42.728;23.256;2023-04-01T00:59:22;94065.19;;;9.50;96.31
57801;BME280;43627;42.728;23.256;2023-04-01T01:01:50;94058.03;;;9.53;95.30
57801;BME280;43627;42.728;23.256;2023-04-01T01:04:27;94057.97;;;9.47;97.98
57801;BME280;43627;42.728;23.256;2023-04-01T01:12:45;94044.34;;;9.47;95.06
57801;BME280;43627;42.728;23.256;2023-04-01T01:15:22;94027.22;;;9.41;96.72
57801;BME280;43627;42.728;23.256;2023-04-01T01:18:19;94037.72;;;9.48;95.04
57801;BME280;43627;42.728;23.256;2023-04-01T01:34:22;94008.44;;;9.43;96.28
57801;BME280;43627;42.728;23.256;2023-04-01T01:36:58;94019.69;;;9.51;96.77
57801;BME280;43627;42.728;23.256;2023-04-01T01:39:28;94004.44;;;9.38;98.96
57801;BME280;43627;42.728;23.256;2023-04-01T01:41:59;94028.19;;;9.58;97.42
57801;BME280;43627;42.728;23.256;2023-04-01T01:44:28;94023.41;;;9.53;100.00
57801;BME280;43627;42.728;23.256;2023-04-01T01:46:57;94021.78;;;9.61;100.00
57801;BME280;43627;42.728;23.256;2023-04-01T01:49:24;94018.97;;;9.56;95.86
57801;BME280;43627;42.728;23.256;2023-04-01T01:51:51;94014.63;;;9.43;96.64
57801;BME280;43627;42.728;23.256;2023-04-01T01:54:19;94010.31;;;9.31;98.40
57801;BME280;43627;42.728;23.256;2023-04-01T01:56:49;94012.88;;;9.40;98.03
57801;BME280;43627;42.728;23.256;2023-04-01T01:59:20;93999.91;;;9.30;98.60
57801;BME280;43627;42.728;23.256;2023-04-01T02:01:51;94010.09;;;9.35;99.50
57801;BME280;43627;42.728;23.256;2023-04-01T02:04:21;93990.16;;;9.23;100.00
57801;BME280;43627;42.728;23.256;2023-04-01T02:06:55;93991.59;;;9.19;100.00
57801;BME280;43627;42.728;23.256;2023-04-01T02:09:22;93994.13;;;9.22;100.00
57801;BME280;43627;42.728;23.256;2023-04-01T02:11:52;93981.19;;;9.17;100.00
57801;BME280;43627;42.728;23.256;2023-04-01T02:14:23;93993.63;;;9.24;100.00
57801;BME280;43627;42.728;23.256;2023-04-01T02:17:04;93995.81;;;9.20;100.00
57801;BME280;43627;42.728;23.256;2023-04-01T02:19:40;93991.88;;;9.21;100.00
57801;BME280;43627;42.728;23.256;2023-04-01T02:22:14;93959.75;;;9.25;100.00
57801;BME280;43627;42.728;23.256;2023-04-01T02:24:43;93987.03;;;9.30;100.00
57801;BME280;43627;42.728;23.256;2023-04-01T02:27:12;93994.59;;;9.41;100.00
57801;BME280;43627;42.728;23.256;2023-04-01T02:29:39;93997.72;;;9.34;100.00
57801;BME280;43627;42.728;23.256;2023-04-01T02:32:07;93985.13;;;9.36;100.00
57801;BME280;43627;42.728;23.256;2023-04-01T02:34:35;94002.78;;;9.47;100.00
57801;BME280;43627;42.728;23.256;2023-04-01T02:37:02;93999.19;;;9.35;100.00
57801;BME280;43627;42.728;23.256;2023-04-01T02:39:30;93993.75;;;9.35;100.00
57801;BME280;43627;42.728;23.256;2023-04-01T02:41:56;94009.28;;;9.49;100.00
57801;BME280;43627;42.728;23.256;2023-04-01T02:44:23;94014.97;;;9.51;100.00
57801;BME280;43627;42.728;23.256;2023-04-01T02:46:50;94017.09;;;9.41;100.00
57801;BME280;43627;42.728;23.256;2023-04-01T02:49:17;94002.31;;;9.28;100.00
57801;BME280;43627;42.728;23.256;2023-04-01T02:51:43;94002.75;;;9.21;100.00
57801;BME280;43627;42.728;23.256;2023-04-01T02:54:10;94025.66;;;9.34;100.00
57801;BME280;43627;42.728;23.256;2023-04-01T02:56:37;94017.50;;;9.34;100.00
57801;BME280;43627;42.728;23.256;2023-04-01T02:59:04;94023.28;;;9.22;100.00
57801;BME280;43627;42.728;23.256;2023-04-01T03:01:30;94032.06;;;9.11;100.00
57801;BME280;43627;42.728;23.256;2023-04-01T03:03:58;94038.31;;;8.82;100.00
57801;BME280;43627;42.728;23.256;2023-04-01T03:06:25;94028.13;;;8.77;100.00
57801;BME280;43627;42.728;23.256;2023-04-01T03:08:52;94043.56;;;8.71;100.00
57801;BME280;43627;42.728;23.256;2023-04-01T03:11:19;94032.00;;;8.55;100.00
57801;BME280;43627;42.728;23.256;2023-04-01T03:13:46;94037.81;;;8.48;100.00
57801;BME280;43627;42.728;23.256;2023-04-01T03:16:13;94032.47;;;8.54;100.00
57801;BME280;43627;42.728;23.256;2023-04-01T03:18:39;94025.16;;;8.30;100.00
57801;BME280;43627;42.728;23.256;2023-04-01T03:21:18;94034.25;;;8.42;100.00
57801;BME280;43627;42.728;23.256;2023-04-01T03:23:45;94040.53;;;8.48;100.00
57801;BME280;43627;42.728;23.256;2023-04-01T03:26:12;94036.03;;;8.30;100.00
57801;BME280;43627;42.728;23.256;2023-04-01T03:28:39;94030.03;;;8.56;100.00
57801;BME280;43627;42.728;23.256;2023-04-01T03:31:06;94005.31;;;8.39;100.00
57801;BME280;43627;42.728;23.256;2023-04-01T03:33:33;94037.97;;;8.59;100.00
57801;BME280;43627;42.728;23.256;2023-04-01T03:36:00;94027.88;;;8.60;100.00
57801;BME280;43627;42.728;23.256;2023-04-01T03:38:26;94013.16;;;8.67;100.00
57801;BME280;43627;42.728;23.256;2023-04-01T03:40:53;93988.06;;;8.57;100.00
57801;BME280;43627;42.728;23.256;2023-04-01T03:43:20;93963.09;;;8.38;100.00
57801;BME280;43627;42.728;23.256;2023-04-01T03:45:48;93974.69;;;8.39;100.00
57801;BME280;43627;42.728;23.256;2023-04-01T03:48:15;93948.38;;;8.30;100.00
57801;BME280;43627;42.728;23.256;2023-04-01T03:50:45;93945.69;;;8.15;100.00
57801;BME280;43627;42.728;23.256;2023-04-01T03:53:12;93944.75;;;8.18;100.00
57801;BME280;43627;42.728;23.256;2023-04-01T03:55:39;93938.09;;;8.19;100.00
57801;BME280;43627;42.728;23.256;2023-04-01T03:58:06;93931.47;;;8.06;100.00
57801;BME280;43627;42.728;23.256;2023-04-01T04:00:34;93926.25;;;7.87;100.00
57801;BME280;43627;42.728;23.256;2023-04-01T04:03:01;93924.06;;;7.77;100.00
57801;BME280;43627;42.728;23.256;2023-04-01T04:05:28;93924.94;;;7.68;100.00
57801;BME280;43627;42.728;23.256;2023-04-01T04:07:55;93917.63;;;7.74;100.00
57801;BME280;43627;42.728;23.256;2023-04-01T04:10:22;93911.19;;;7.71;100.00
57801;BME280;43627;42.728;23.256;2023-04-01T04:12:49;93900.13;;;7.75;100.00
57801;BME280;43627;42.728;23.256;2023-04-01T04:15:16;93903.00;;;7.86;100.00
57801;BME280;43627;42.728;23.256;2023-04-01T04:17:47;93915.56;;;7.98;100.00
57801;BME280;43627;42.728;23.256;2023-04-01T04:20:14;93900.56;;;8.03;100.00
57801;BME280;43627;42.728;23.256;2023-04-01T04:22:41;93895.53;;;7.96;100.00
57801;BME280;43627;42.728;23.256;2023-04-01T04:25:08;93894.31;;;7.97;100.00
57801;BME280;43627;42.728;23.256;2023-04-01T04:27:35;93877.59;;;8.19;100.00
57801;BME280;43627;42.728;23.256;2023-04-01T04:30:04;93871.50;;;8.24;100.00
57801;BME280;43627;42.728;23.256;2023-04-01T04:32:31;93876.53;;;8.46;100.00
57801;BME280;43627;42.728;23.256;2023-04-01T04:34:58;93875.44;;;8.58;100.00
57801;BME280;43627;42.728;23.256;2023-04-01T04:37:25;93875.91;;;8.77;100.00
57801;BME280;43627;42.728;23.256;2023-04-01T04:39:52;93855.47;;;8.81;100.00
57801;BME280;43627;42.728;23.256;2023-04-01T04:42:19;93877.00;;;8.85;100.00
57801;BME280;43627;42.728;23.256;2023-04-01T04:44:45;93877.41;;;8.78;100.00
57801;BME280;43627;42.728;23.256;2023-04-01T04:47:12;93869.81;;;8.82;100.00
57801;BME280;43627;42.728;23.256;2023-04-01T04:49:39;93846.63;;;8.66;100.00
57801;BME280;43627;42.728;23.256;2023-04-01T04:52:06;93857.97;;;8.85;100.00
57801;BME280;43627;42.728;23.256;2023-04-01T04:54:32;93845.81;;;8.80;100.00
57801;BME280;43627;42.728;23.256;2023-04-01T04:56:59;93855.59;;;8.93;100.00
57801;BME280;43627;42.728;23.256;2023-04-01T04:59:27;93855.78;;;8.89;100.00
57801;BME280;43627;42.728;23.256;2023-04-01T05:01:53;93841.25;;;8.92;100.00
57801;BME280;43627;42.728;23.256;2023-04-01T05:04:20;93847.13;;;9.11;100.00
57801;BME280;43627;42.728;23.256;2023-04-01T05:06:47;93833.09;;;9.18;100.00
57801;BME280;43627;42.728;23.256;2023-04-01T05:09:14;93806.88;;;9.15;100.00
57801;BME280;43627;42.728;23.256;2023-04-01T05:11:41;93824.84;;;9.33;100.00
57801;BME280;43627;42.728;23.256;2023-04-01T05:14:17;93815.53;;;9.45;100.00
57801;BME280;43627;42.728;23.256;2023-04-01T05:16:43;93806.53;;;9.33;100.00
57801;BME280;43627;42.728;23.256;2023-04-01T05:19:10;93804.16;;;9.47;100.00
57801;BME280;43627;42.728;23.256;2023-04-01T05:21:37;93799.53;;;9.53;100.00
57801;BME280;43627;42.728;23.256;2023-04-01T05:24:07;93789.13;;;9.51;100.00
57801;BME280;43627;42.728;23.256;2023-04-01T05:26:35;93813.56;;;10.14;100.00
57801;BME280;43627;42.728;23.256;2023-04-01T05:29:03;93819.81;;;10.74;93.83
57801;BME280;43627;42.728;23.256;2023-04-01T05:31:30;93810.97;;;11.02;85.90
57801;BME280;43627;42.728;23.256;2023-04-01T05:33:57;93792.66;;;12.09;83.97
57801;BME280;43627;42.728;23.256;2023-04-01T05:36:24;93814.94;;;13.51;67.79
57801;BME280;43627;42.728;23.256;2023-04-01T05:38:54;93824.59;;;13.22;64.06
57801;BME280;43627;42.728;23.256;2023-04-01T05:41:21;93810.63;;;13.61;63.62
57801;BME280;43627;42.728;23.256;2023-04-01T05:43:48;93794.88;;;14.03;58.66
57801;BME280;43627;42.728;23.256;2023-04-01T05:46:15;93814.09;;;14.52;57.63
57801;BME280;43627;42.728;23.256;2023-04-01T05:48:41;93806.56;;;14.96;54.59
57801;BME280;43627;42.728;23.256;2023-04-01T05:51:14;93774.69;;;15.11;52.39
57801;BME280;43627;42.728;23.256;2023-04-01T05:53:42;93780.59;;;14.35;55.00
57801;BME280;43627;42.728;23.256;2023-04-01T05:56:09;93767.94;;;14.75;54.96
57801;BME280;43627;42.728;23.256;2023-04-01T05:58:36;93804.13;;;15.49;52.94
57801;BME280;43627;42.728;23.256;2023-04-01T06:01:04;93791.78;;;15.55;50.43
57801;BME280;43627;42.728;23.256;2023-04-01T06:03:39;93813.94;;;15.95;49.74
57801;BME280;43627;42.728;23.256;2023-04-01T06:06:14;93808.22;;;15.61;48.99
57801;BME280;43627;42.728;23.256;2023-04-01T06:08:42;93774.66;;;14.55;51.89
57801;BME280;43627;42.728;23.256;2023-04-01T06:11:38;93794.16;;;13.97;54.89
57801;BME280;43627;42.728;23.256;2023-04-01T06:33:08;93796.78;;;12.49;59.95
57801;BME280;43627;42.728;23.256;2023-04-01T06:46:47;93787.19;;;12.09;59.28
57801;BME280;43627;42.728;23.256;2023-04-01T06:54:49;93764.06;;;12.32;60.23
57801;BME280;43627;42.728;23.256;2023-04-01T06:57:35;93770.31;;;12.16;59.68
57801;BME280;43627;42.728;23.256;2023-04-01T07:00:18;93755.94;;;12.04;60.88
57801;BME280;43627;42.728;23.256;2023-04-01T07:02:55;93764.31;;;12.23;60.23
57801;BME280;43627;42.728;23.256;2023-04-01T07:05:30;93766.31;;;12.22;59.30
57801;BME280;43627;42.728;23.256;2023-04-01T07:07:59;93759.81;;;12.31;58.10
57801;BME280;43627;42.728;23.256;2023-04-01T07:11:05;93773.97;;;12.35;58.93
57801;BME280;43627;42.728;23.256;2023-04-01T07:13:54;93744.63;;;12.41;59.21
57801;BME280;43627;42.728;23.256;2023-04-01T07:16:30;93754.00;;;12.57;59.04
57801;BME280;43627;42.728;23.256;2023-04-01T07:19:12;93753.19;;;12.73;58.45
57801;BME280;43627;42.728;23.256;2023-04-01T07:26:47;93762.13;;;12.79;59.01
57801;BME280;43627;42.728;23.256;2023-04-01T07:29:15;93757.91;;;12.73;59.79
57801;BME280;43627;42.728;23.256;2023-04-01T07:31:57;93757.09;;;12.89;59.07
57801;BME280;43627;42.728;23.256;2023-04-01T07:37:15;93762.19;;;13.09;58.83
57801;BME280;43627;42.728;23.256;2023-04-01T07:42:20;93753.69;;;13.19;58.04
57801;BME280;43627;42.728;23.256;2023-04-01T07:50:37;93689.09;;;12.63;60.67
57801;BME280;43627;42.728;23.256;2023-04-01T07:56:12;93727.47;;;12.87;61.56
57801;BME280;43627;42.728;23.256;2023-04-01T07:59:10;93740.13;;;12.96;61.18
57801;BME280;43627;42.728;23.256;2023-04-01T08:01:41;93731.75;;;13.24;62.56
57801;BME280;43627;42.728;23.256;2023-04-01T08:04:37;93734.97;;;13.28;60.51
57801;BME280;43627;42.728;23.256;2023-04-01T08:07:20;93725.38;;;13.46;59.90
57801;BME280;43627;42.728;23.256;2023-04-01T08:09:59;93715.31;;;13.54;60.71
57801;BME280;43627;42.728;23.256;2023-04-01T08:15:21;93699.81;;;13.62;64.92
57801;BME280;43627;42.728;23.256;2023-04-01T08:21:06;93682.59;;;13.92;62.67
57801;BME280;43627;42.728;23.256;2023-04-01T08:23:40;93690.66;;;14.09;62.98
57801;BME280;43627;42.728;23.256;2023-04-01T08:28:58;93688.28;;;14.62;58.21
57801;BME280;43627;42.728;23.256;2023-04-01T08:31:58;93671.22;;;14.88;57.29
57801;BME280;43627;42.728;23.256;2023-04-01T08:34:32;93666.41;;;15.26;56.10
57801;BME280;43627;42.728;23.256;2023-04-01T08:39:43;93643.91;;;15.27;53.95
57801;BME280;43627;42.728;23.256;2023-04-01T08:53:50;93619.47;;;16.22;46.85
57801;BME280;43627;42.728;23.256;2023-04-01T08:56:40;93606.69;;;16.59;45.95
57801;BME280;43627;42.728;23.256;2023-04-01T09:04:51;93612.91;;;16.72;45.09
57801;BME280;43627;42.728;23.256;2023-04-01T09:08:01;93613.94;;;16.82;45.19
57801;BME280;43627;42.728;23.256;2023-04-01T09:10:35;93612.19;;;16.93;47.44
57801;BME280;43627;42.728;23.256;2023-04-01T09:15:57;93609.41;;;17.06;44.06
57801;BME280;43627;42.728;23.256;2023-04-01T09:21:28;93621.59;;;16.63;43.97
57801;BME280;43627;42.728;23.256;2023-04-01T09:27:02;93597.28;;;16.54;44.20
57801;BME280;43627;42.728;23.256;2023-04-01T09:32:18;93590.84;;;16.85;43.16
57801;BME280;43627;42.728;23.256;2023-04-01T09:38:08;93581.84;;;17.27;42.51
57801;BME280;43627;42.728;23.256;2023-04-01T09:40:56;93574.78;;;17.39;41.18
57801;BME280;43627;42.728;23.256;2023-04-01T10:12:42;93536.06;;;17.45;41.07
57801;BME280;43627;42.728;23.256;2023-04-01T10:28:36;93484.63;;;16.90;39.83
57801;BME280;43627;42.728;23.256;2023-04-01T10:36:56;93471.00;;;16.84;38.73
57801;BME280;43627;42.728;23.256;2023-04-01T10:54:49;93461.69;;;17.16;40.36
57801;BME280;43627;42.728;23.256;2023-04-01T11:03:06;93439.78;;;16.82;43.07
57801;BME280;43627;42.728;23.256;2023-04-01T11:05:57;93444.81;;;16.49;43.79
57801;BME280;43627;42.728;23.256;2023-04-01T11:30:44;93510.53;;;16.19;42.53
57801;BME280;43627;42.728;23.256;2023-04-01T11:49:36;93683.50;;;10.97;100.00
57801;BME280;43627;42.728;23.256;2023-04-01T11:52:44;93687.47;;;10.96;100.00
57801;BME280;43627;42.728;23.256;2023-04-01T12:09:41;93701.63;;;11.11;100.00
57801;BME280;43627;42.728;23.256;2023-04-01T12:15:03;93691.19;;;10.98;100.00
57801;BME280;43627;42.728;23.256;2023-04-01T12:20:52;93677.56;;;10.87;100.00
57801;BME280;43627;42.728;23.256;2023-04-01T12:29:17;93702.56;;;10.69;100.00
57801;BME280;43627;42.728;23.256;2023-04-01T12:45:35;93694.00;;;10.22;100.00
57801;BME280;43627;42.728;23.256;2023-04-01T12:56:32;93646.81;;;10.53;100.00
57801;BME280;43627;42.728;23.256;2023-04-01T13:04:32;93653.28;;;10.83;100.00
57801;BME280;43627;42.728;23.256;2023-04-01T13:07:16;93649.56;;;11.03;100.00
57801;BME280;43627;42.728;23.256;2023-04-01T13:10:01;93662.94;;;11.24;100.00
57801;BME280;43627;42.728;23.256;2023-04-01T13:12:34;93639.84;;;11.47;100.00
57801;BME280;43627;42.728;23.256;2023-04-01T13:21:04;93624.94;;;11.37;100.00
57801;BME280;43627;42.728;23.256;2023-04-01T13:29:28;93610.00;;;12.29;100.00
57801;BME280;43627;42.728;23.256;2023-04-01T13:43:04;93562.13;;;14.05;100.00
57801;BME280;43627;42.728;23.256;2023-04-01T13:51:23;93553.16;;;13.86;99.23
57801;BME280;43627;42.728;23.256;2023-04-01T13:54:18;93552.72;;;14.00;95.82
57801;BME280;43627;42.728;23.256;2023-04-01T13:57:16;93541.31;;;13.96;97.13
57801;BME280;43627;42.728;23.256;2023-04-01T14:00:19;93547.94;;;14.57;92.66
57801;BME280;43627;42.728;23.256;2023-04-01T14:05:35;93541.69;;;14.76;83.05
57801;BME280;43627;42.728;23.256;2023-04-01T14:11:27;93537.88;;;15.37;83.24
57801;BME280;43627;42.728;23.256;2023-04-01T14:20:05;93528.69;;;15.48;81.73
57801;BME280;43627;42.728;23.256;2023-04-01T14:36:57;93491.13;;;14.71;85.54
57801;BME280;43627;42.728;23.256;2023-04-01T14:42:23;93495.28;;;14.46;93.12
57801;BME280;43627;42.728;23.256;2023-04-01T14:47:56;93504.16;;;14.52;91.15
57801;BME280;43627;42.728;23.256;2023-04-01T14:50:28;93498.31;;;14.42;90.32
57801;BME280;43627;42.728;23.256;2023-04-01T14:53:43;93489.19;;;14.53;91.90
57801;BME280;43627;42.728;23.256;2023-04-01T14:55:59;93488.25;;;14.32;94.51
57801;BME280;43627;42.728;23.256;2023-04-01T14:58:43;93473.06;;;14.12;93.95
57801;BME280;43627;42.728;23.256;2023-04-01T15:04:10;93500.72;;;13.95;100.00
57801;BME280;43627;42.728;23.256;2023-04-01T15:12:30;93518.22;;;13.30;100.00
57801;BME280;43627;42.728;23.256;2023-04-01T15:20:32;93521.91;;;12.78;100.00
57801;BME280;43627;42.728;23.256;2023-04-01T15:23:49;93522.75;;;12.67;100.00
57801;BME280;43627;42.728;23.256;2023-04-01T15:26:11;93529.22;;;12.70;100.00
57801;BME280;43627;42.728;23.256;2023-04-01T15:29:06;93521.16;;;12.77;100.00
57801;BME280;43627;42.728;23.256;2023-04-01T15:31:39;93509.91;;;12.86;100.00
57801;BME280;43627;42.728;23.256;2023-04-01T15:40:42;93555.31;;;12.71;100.00
57801;BME280;43627;42.728;23.256;2023-04-01T15:45:45;93644.59;;;11.07;100.00
57801;BME280;43627;42.728;23.256;2023-04-01T16:05:20;93758.41;;;7.65;100.00
57801;BME280;43627;42.728;23.256;2023-04-01T16:08:22;93779.03;;;7.42;100.00
57801;BME280;43627;42.728;23.256;2023-04-01T16:13:42;93779.22;;;7.39;100.00
57801;BME280;43627;42.728;23.256;2023-04-01T16:19:29;93797.16;;;7.51;100.00
57801;BME280;43627;42.728;23.256;2023-04-01T16:22:23;93783.59;;;7.51;100.00
57801;BME280;43627;42.728;23.256;2023-04-01T16:25:29;93796.66;;;7.67;100.00
57801;BME280;43627;42.728;23.256;2023-04-01T16:30:58;93798.59;;;7.82;100.00
57801;BME280;43627;42.728;23.256;2023-04-01T16:44:58;93831.84;;;7.47;100.00
57801;BME280;43627;42.728;23.256;2023-04-01T16:47:32;93826.63;;;7.43;100.00
57801;BME280;43627;42.728;23.256;2023-04-01T16:50:21;93843.94;;;7.46;100.00
57801;BME280;43627;42.728;23.256;2023-04-01T16:53:09;93853.09;;;7.49;100.00
57801;BME280;43627;42.728;23.256;2023-04-01T16:59:07;93838.13;;;7.24;100.00
57801;BME280;43627;42.728;23.256;2023-04-01T17:01:49;93872.81;;;7.34;100.00
57801;BME280;43627;42.728;23.256;2023-04-01T17:05:03;93873.47;;;7.29;100.00
57801;BME280;43627;42.728;23.256;2023-04-01T17:07:28;93866.19;;;7.21;100.00
57801;BME280;43627;42.728;23.256;2023-04-01T17:18:24;93881.47;;;7.09;100.00
57801;BME280;43627;42.728;23.256;2023-04-01T17:20:59;93916.75;;;7.24;100.00
57801;BME280;43627;42.728;23.256;2023-04-01T17:23:38;93900.56;;;7.14;100.00
57801;BME280;43627;42.728;23.256;2023-04-01T17:26:16;93897.78;;;7.24;100.00
57801;BME280;43627;42.728;23.256;2023-04-01T17:31:21;93887.03;;;7.14;100.00
57801;BME280;43627;42.728;23.256;2023-04-01T17:33:58;93886.44;;;7.10;100.00
57801;BME280;43627;42.728;23.256;2023-04-01T17:37:04;93892.78;;;7.07;100.00
57801;BME280;43627;42.728;23.256;2023-04-01T17:39:50;93899.31;;;7.01;100.00
57801;BME280;43627;42.728;23.256;2023-04-01T17:42:26;93904.56;;;7.04;100.00
57801;BME280;43627;42.728;23.256;2023-04-01T17:48:21;93924.66;;;6.98;100.00
57801;BME280;43627;42.728;23.256;2023-04-01T17:59:20;93934.47;;;6.95;100.00
57801;BME280;43627;42.728;23.256;2023-04-01T18:04:37;93950.13;;;6.91;100.00
57801;BME280;43627;42.728;23.256;2023-04-01T18:15:59;93980.06;;;6.97;100.00
57801;BME280;43627;42.728;23.256;2023-04-01T18:23:51;93976.59;;;6.96;100.00
57801;BME280;43627;42.728;23.256;2023-04-01T18:26:35;93983.97;;;6.96;100.00
57801;BME280;43627;42.728;23.256;2023-04-01T18:31:47;93975.44;;;6.88;100.00
57801;BME280;43627;42.728;23.256;2023-04-01T18:40:30;93981.56;;;6.98;100.00
57801;BME280;43627;42.728;23.256;2023-04-01T18:43:14;93992.88;;;6.96;100.00
57801;BME280;43627;42.728;23.256;2023-04-01T18:51:01;93970.91;;;6.94;100.00
57801;BME280;43627;42.728;23.256;2023-04-01T18:53:48;93986.81;;;7.01;100.00
57801;BME280;43627;42.728;23.256;2023-04-01T18:56:38;93982.66;;;7.15;100.00
57801;BME280;43627;42.728;23.256;2023-04-01T18:59:22;93986.56;;;7.14;100.00
57801;BME280;43627;42.728;23.256;2023-04-01T19:10:31;94012.72;;;7.41;100.00
57801;BME280;43627;42.728;23.256;2023-04-01T19:18:50;94027.78;;;7.42;100.00
57801;BME280;43627;42.728;23.256;2023-04-01T19:21:37;94013.66;;;7.38;100.00
57801;BME280;43627;42.728;23.256;2023-04-01T19:30:22;94022.78;;;7.26;100.00
57801;BME280;43627;42.728;23.256;2023-04-01T19:35:35;94018.09;;;7.26;100.00
57801;BME280;43627;42.728;23.256;2023-04-01T19:44:03;94039.72;;;7.35;100.00
57801;BME280;43627;42.728;23.256;2023-04-01T19:46:39;94050.88;;;7.37;100.00
57801;BME280;43627;42.728;23.256;2023-04-01T20:00:48;94047.78;;;7.30;100.00
57801;BME280;43627;42.728;23.256;2023-04-01T20:06:19;94045.63;;;7.34;100.00
57801;BME280;43627;42.728;23.256;2023-04-01T20:11:55;94041.28;;;7.51;100.00
57801;BME280;43627;42.728;23.256;2023-04-01T20:14:57;94052.88;;;7.52;100.00
57801;BME280;43627;42.728;23.256;2023-04-01T20:17:26;94042.59;;;7.56;100.00
57801;BME280;43627;42.728;23.256;2023-04-01T20:25:27;94050.78;;;7.70;100.00
57801;BME280;43627;42.728;23.256;2023-04-01T20:28:05;94050.19;;;7.66;100.00
57801;BME280;43627;42.728;23.256;2023-04-01T20:34:03;94048.75;;;7.56;100.00
57801;BME280;43627;42.728;23.256;2023-04-01T20:47:50;94071.66;;;7.40;100.00
57801;BME280;43627;42.728;23.256;2023-04-01T20:53:15;94060.69;;;7.35;100.00
57801;BME280;43627;42.728;23.256;2023-04-01T20:59:09;94075.69;;;7.21;100.00
57801;BME280;43627;42.728;23.256;2023-04-01T21:07:49;94073.47;;;7.10;100.00
57801;BME280;43627;42.728;23.256;2023-04-01T21:10:44;94074.13;;;7.05;100.00
57801;BME280;43627;42.728;23.256;2023-04-01T21:18:39;94086.63;;;7.03;100.00
57801;BME280;43627;42.728;23.256;2023-04-01T21:27:05;94088.75;;;6.99;100.00
57801;BME280;43627;42.728;23.256;2023-04-01T21:30:15;94085.75;;;6.97;100.00
57801;BME280;43627;42.728;23.256;2023-04-01T21:36:03;94096.91;;;6.90;100.00
57801;BME280;43627;42.728;23.256;2023-04-01T21:39:06;94099.63;;;6.90;100.00
57801;BME280;43627;42.728;23.256;2023-04-01T21:56:43;94092.28;;;7.14;100.00
57801;BME280;43627;42.728;23.256;2023-04-01T22:08:20;94075.06;;;6.60;100.00
57801;BME280;43627;42.728;23.256;2023-04-01T22:10:59;94069.41;;;6.49;100.00
57801;BME280;43627;42.728;23.256;2023-04-01T22:18:50;94083.72;;;6.40;100.00
57801;BME280;43627;42.728;23.256;2023-04-01T22:21:29;94079.97;;;6.38;100.00
57801;BME280;43627;42.728;23.256;2023-04-01T22:34:34;94073.03;;;6.46;100.00
57801;BME280;43627;42.728;23.256;2023-04-01T22:45:02;94074.69;;;6.34;100.00
57801;BME280;43627;42.728;23.256;2023-04-01T22:56:38;94088.63;;;5.99;100.00
57801;BME280;43627;42.728;23.256;2023-04-01T22:59:19;94104.84;;;6.09;100.00
57801;BME280;43627;42.728;23.256;2023-04-01T23:01:54;94096.56;;;6.12;100.00
57801;BME280;43627;42.728;23.256;2023-04-01T23:04:26;94105.44;;;6.13;100.00
57801;BME280;43627;42.728;23.256;2023-04-01T23:07:02;94103.34;;;6.17;100.00
57801;BME280;43627;42.728;23.256;2023-04-01T23:09:32;94095.63;;;6.24;100.00
57801;BME280;43627;42.728;23.256;2023-04-01T23:12:04;94107.19;;;6.34;100.00
57801;BME280;43627;42.728;23.256;2023-04-01T23:14:41;94108.84;;;6.32;100.00
57801;BME280;43627;42.728;23.256;2023-04-01T23:20:29;94101.00;;;6.43;100.00
57801;BME280;43627;42.728;23.256;2023-04-01T23:23:06;94091.06;;;6.49;100.00
57801;BME280;43627;42.728;23.256;2023-04-01T23:30:48;94090.75;;;6.56;100.00
57801;BME280;43627;42.728;23.256;2023-04-01T23:35:49;94098.63;;;6.36;100.00
57801;BME280;43627;42.728;23.256;2023-04-01T23:38:17;94081.63;;;6.35;100.00
57801;BME280;43627;42.728;23.256;2023-04-01T23:40:47;94094.41;;;6.35;100.00
57801;BME280;43627;42.728;23.256;2023-04-01T23:43:31;94096.22;;;6.38;100.00
57801;BME280;43627;42.728;23.256;2023-04-01T23:46:02;94086.56;;;6.46;100.00